sensor_id;sensor_type;location;lat;lon;timestamp;pressure;altitude;pressure_sealevel;temperature;humidity
59029;BME280;45919;51.420;5.454;2023-02-11T00:00:24;103359.66;;;6.61;74.73
59029;BME280;45919;51.420;5.454;2023-02-11T00:02:27;103363.06;;;6.60;74.75
59029;BME280;45919;51.420;5.454;2023-02-11T00:03:29;103358.75;;;6.61;74.64
59029;BME280;45919;51.420;5.454;2023-02-11T00:04:31;103350.28;;;6.63;74.92
59029;BME280;45919;51.420;5.454;2023-02-11T00:05:32;103350.19;;;6.62;74.55
59029;BME280;45919;51.420;5.454;2023-02-11T00:06:34;103348.34;;;6.61;74.73
59029;BME280;45919;51.420;5.454;2023-02-11T00:07:36;103353.44;;;6.59;74.70
59029;BME280;45919;51.420;5.454;2023-02-11T00:08:37;103345.53;;;6.57;74.60
59029;BME280;45919;51.420;5.454;2023-02-11T00:09:39;103347.13;;;6.55;74.70
59029;BME280;45919;51.420;5.454;2023-02-11T00:10:40;103341.94;;;6.55;74.80
59029;BME280;45919;51.420;5.454;2023-02-11T00:11:42;103336.63;;;6.54;74.64
59029;BME280;45919;51.420;5.454;2023-02-11T00:12:43;103340.13;;;6.54;74.63
59029;BME280;45919;51.420;5.454;2023-02-11T00:13:45;103335.72;;;6.53;74.79
59029;BME280;45919;51.420;5.454;2023-02-11T00:14:47;103329.75;;;6.54;74.65
59029;BME280;45919;51.420;5.454;2023-02-11T00:15:48;103330.53;;;6.53;74.53
59029;BME280;45919;51.420;5.454;2023-02-11T00:16:50;103340.03;;;6.53;74.72
59029;BME280;45919;51.420;5.454;2023-02-11T00:17:52;103333.91;;;6.52;74.76
59029;BME280;45919;51.420;5.454;2023-02-11T00:18:53;103331.31;;;6.52;74.63
59029;BME280;45919;51.420;5.454;2023-02-11T00:19:55;103330.41;;;6.52;74.53
59029;BME280;45919;51.420;5.454;2023-02-11T00:20:56;103328.63;;;6.51;74.70
59029;BME280;45919;51.420;5.454;2023-02-11T00:21:58;103329.63;;;6.53;74.70
59029;BME280;45919;51.420;5.454;2023-02-11T00:22:59;103325.22;;;6.52;74.75
59029;BME280;45919;51.420;5.454;2023-02-11T00:24:00;103325.13;;;6.50;74.68
59029;BME280;45919;51.420;5.454;2023-02-11T00:25:02;103321.84;;;6.53;74.70
59029;BME280;45919;51.420;5.454;2023-02-11T00:26:10;103327.81;;;6.52;74.81
59029;BME280;45919;51.420;5.454;2023-02-11T00:27:11;103317.53;;;6.53;74.74
59029;BME280;45919;51.420;5.454;2023-02-11T00:28:13;103314.06;;;6.53;74.55
59029;BME280;45919;51.420;5.454;2023-02-11T00:29:14;103307.28;;;6.55;74.56
59029;BME280;45919;51.420;5.454;2023-02-11T00:30:16;103317.69;;;6.55;74.51
59029;BME280;45919;51.420;5.454;2023-02-11T00:31:18;103304.69;;;6.55;74.57
59029;BME280;45919;51.420;5.454;2023-02-11T00:32:20;103311.66;;;6.56;74.55
59029;BME280;45919;51.420;5.454;2023-02-11T00:33:21;103310.00;;;6.56;74.59
59029;BME280;45919;51.420;5.454;2023-02-11T00:34:23;103311.78;;;6.57;74.58
59029;BME280;45919;51.420;5.454;2023-02-11T00:35:25;103319.66;;;6.59;74.60
59029;BME280;45919;51.420;5.454;2023-02-11T00:36:27;103315.50;;;6.61;74.44
59029;BME280;45919;51.420;5.454;2023-02-11T00:37:28;103319.13;;;6.63;74.67
59029;BME280;45919;51.420;5.454;2023-02-11T00:38:30;103321.25;;;6.69;74.79
59029;BME280;45919;51.420;5.454;2023-02-11T00:39:31;103322.16;;;6.69;74.57
59029;BME280;45919;51.420;5.454;2023-02-11T00:40:33;103311.88;;;6.71;74.49
59029;BME280;45919;51.420;5.454;2023-02-11T00:41:34;103311.97;;;6.73;74.48
59029;BME280;45919;51.420;5.454;2023-02-11T00:42:36;103307.59;;;6.72;74.41
59029;BME280;45919;51.420;5.454;2023-02-11T00:43:38;103302.50;;;6.73;74.49
59029;BME280;45919;51.420;5.454;2023-02-11T00:44:39;103303.28;;;6.72;74.35
59029;BME280;45919;51.420;5.454;2023-02-11T00:45:41;103313.91;;;6.75;74.60
59029;BME280;45919;51.420;5.454;2023-02-11T00:46:43;103308.81;;;6.77;74.67
59029;BME280;45919;51.420;5.454;2023-02-11T00:47:44;103307.00;;;6.76;74.57
59029;BME280;45919;51.420;5.454;2023-02-11T00:48:45;103307.91;;;6.76;74.62
59029;BME280;45919;51.420;5.454;2023-02-11T00:49:47;103304.63;;;6.79;74.44
59029;BME280;45919;51.420;5.454;2023-02-11T00:50:49;103313.31;;;6.79;74.60
59029;BME280;45919;51.420;5.454;2023-02-11T00:51:50;103304.75;;;6.80;74.50
59029;BME280;45919;51.420;5.454;2023-02-11T00:52:52;103305.63;;;6.81;74.61
59029;BME280;45919;51.420;5.454;2023-02-11T00:53:53;103303.94;;;6.81;74.55
59029;BME280;45919;51.420;5.454;2023-02-11T00:54:54;103308.34;;;6.82;74.60
59029;BME280;45919;51.420;5.454;2023-02-11T00:55:56;103292.75;;;6.82;74.89
59029;BME280;45919;51.420;5.454;2023-02-11T00:56:57;103300.75;;;6.86;74.76
59029;BME280;45919;51.420;5.454;2023-02-11T00:57:59;103294.75;;;6.87;74.50
59029;BME280;45919;51.420;5.454;2023-02-11T00:59:00;103305.06;;;6.85;74.53
59029;BME280;45919;51.420;5.454;2023-02-11T01:00:03;103304.94;;;6.84;74.64
59029;BME280;45919;51.420;5.454;2023-02-11T01:01:05;103308.34;;;6.82;74.66
59029;BME280;45919;51.420;5.454;2023-02-11T01:02:06;103307.44;;;6.82;74.67
59029;BME280;45919;51.420;5.454;2023-02-11T01:03:08;103308.22;;;6.81;74.72
59029;BME280;45919;51.420;5.454;2023-02-11T01:04:09;103312.63;;;6.82;74.57
59029;BME280;45919;51.420;5.454;2023-02-11T01:05:11;103316.16;;;6.82;74.71
59029;BME280;45919;51.420;5.454;2023-02-11T01:06:12;103317.94;;;6.84;74.78
59029;BME280;45919;51.420;5.454;2023-02-11T01:07:13;103308.47;;;6.84;74.63
59029;BME280;45919;51.420;5.454;2023-02-11T01:08:15;103315.44;;;6.85;74.64
59029;BME280;45919;51.420;5.454;2023-02-11T01:09:16;103319.88;;;6.86;74.80
59029;BME280;45919;51.420;5.454;2023-02-11T01:10:18;103324.25;;;6.87;74.80
59029;BME280;45919;51.420;5.454;2023-02-11T01:11:20;103318.25;;;6.88;74.64
59029;BME280;45919;51.420;5.454;2023-02-11T01:12:22;103325.28;;;6.89;74.74
59029;BME280;45919;51.420;5.454;2023-02-11T01:13:24;103321.09;;;6.91;74.74
59029;BME280;45919;51.420;5.454;2023-02-11T01:14:26;103322.78;;;6.91;74.62
59029;BME280;45919;51.420;5.454;2023-02-11T01:15:27;103319.25;;;6.90;74.85
59029;BME280;45919;51.420;5.454;2023-02-11T01:16:28;103324.69;;;6.93;74.75
59029;BME280;45919;51.420;5.454;2023-02-11T01:17:30;103320.19;;;6.91;74.76
59029;BME280;45919;51.420;5.454;2023-02-11T01:18:32;103316.66;;;6.90;74.61
59029;BME280;45919;51.420;5.454;2023-02-11T01:19:35;103325.28;;;6.89;74.76
59029;BME280;45919;51.420;5.454;2023-02-11T01:20:36;103318.38;;;6.90;74.86
59029;BME280;45919;51.420;5.454;2023-02-11T01:21:37;103328.88;;;6.91;74.85
59029;BME280;45919;51.420;5.454;2023-02-11T01:22:39;103317.47;;;6.89;74.60
59029;BME280;45919;51.420;5.454;2023-02-11T01:23:40;103321.75;;;6.89;74.53
59029;BME280;45919;51.420;5.454;2023-02-11T01:24:42;103319.16;;;6.89;74.65
59029;BME280;45919;51.420;5.454;2023-02-11T01:25:43;103315.78;;;6.90;74.87
59029;BME280;45919;51.420;5.454;2023-02-11T01:26:45;103321.09;;;6.91;74.82
59029;BME280;45919;51.420;5.454;2023-02-11T01:27:46;103326.38;;;6.93;74.68
59029;BME280;45919;51.420;5.454;2023-02-11T01:28:48;103319.50;;;6.93;74.70
59029;BME280;45919;51.420;5.454;2023-02-11T01:29:49;103315.19;;;6.94;74.77
59029;BME280;45919;51.420;5.454;2023-02-11T01:30:51;103315.28;;;6.96;74.99
59029;BME280;45919;51.420;5.454;2023-02-11T01:31:52;103306.72;;;6.97;74.89
59029;BME280;45919;51.420;5.454;2023-02-11T01:32:54;103319.81;;;6.98;74.71
59029;BME280;45919;51.420;5.454;2023-02-11T01:33:55;103316.41;;;6.99;74.57
59029;BME280;45919;51.420;5.454;2023-02-11T01:34:57;103320.84;;;7.00;74.81
59029;BME280;45919;51.420;5.454;2023-02-11T01:35:59;103323.53;;;7.02;74.79
59029;BME280;45919;51.420;5.454;2023-02-11T01:37:00;103320.13;;;7.03;74.51
59029;BME280;45919;51.420;5.454;2023-02-11T01:38:02;103329.75;;;7.04;74.69
59029;BME280;45919;51.420;5.454;2023-02-11T01:39:03;103327.25;;;7.05;74.62
59029;BME280;45919;51.420;5.454;2023-02-11T01:40:06;103333.34;;;7.06;74.36
59029;BME280;45919;51.420;5.454;2023-02-11T01:41:08;103328.16;;;7.06;74.54
59029;BME280;45919;51.420;5.454;2023-02-11T01:42:14;103331.63;;;7.06;74.61
59029;BME280;45919;51.420;5.454;2023-02-11T01:43:15;103326.56;;;7.08;74.57
59029;BME280;45919;51.420;5.454;2023-02-11T01:44:21;103324.06;;;7.10;74.33
59029;BME280;45919;51.420;5.454;2023-02-11T01:46:42;103324.06;;;7.10;74.44
59029;BME280;45919;51.420;5.454;2023-02-11T01:47:43;103318.88;;;7.10;74.30
59029;BME280;45919;51.420;5.454;2023-02-11T01:48:49;103316.38;;;7.11;74.48
59029;BME280;45919;51.420;5.454;2023-02-11T01:49:54;103319.75;;;7.10;74.38
59029;BME280;45919;51.420;5.454;2023-02-11T01:51:02;103305.78;;;7.08;74.49
59029;BME280;45919;51.420;5.454;2023-02-11T01:52:09;103304.97;;;7.09;74.25
59029;BME280;45919;51.420;5.454;2023-02-11T01:53:11;103302.28;;;7.08;74.34
59029;BME280;45919;51.420;5.454;2023-02-11T01:54:32;103298.66;;;7.05;74.18
59029;BME280;45919;51.420;5.454;2023-02-11T01:55:54;103301.25;;;7.05;74.48
59029;BME280;45919;51.420;5.454;2023-02-11T01:57:16;103305.53;;;7.05;74.56
59029;BME280;45919;51.420;5.454;2023-02-11T01:58:27;103306.44;;;7.05;74.57
59029;BME280;45919;51.420;5.454;2023-02-11T01:59:33;103298.66;;;7.05;74.63
59029;BME280;45919;51.420;5.454;2023-02-11T02:00:38;103300.34;;;7.05;74.72
59029;BME280;45919;51.420;5.454;2023-02-11T02:01:40;103299.56;;;7.06;74.75
59029;BME280;45919;51.420;5.454;2023-02-11T02:03:51;103304.06;;;7.09;74.42
59029;BME280;45919;51.420;5.454;2023-02-11T02:04:57;103301.56;;;7.10;74.51
59029;BME280;45919;51.420;5.454;2023-02-11T02:06:02;103297.97;;;7.08;74.19
59029;BME280;45919;51.420;5.454;2023-02-11T02:07:10;103292.53;;;7.05;74.39
59029;BME280;45919;51.420;5.454;2023-02-11T02:09:21;103289.06;;;7.04;74.53
59029;BME280;45919;51.420;5.454;2023-02-11T02:10:24;103283.88;;;7.04;74.57
59029;BME280;45919;51.420;5.454;2023-02-11T02:11:26;103286.34;;;7.03;74.58
59029;BME280;45919;51.420;5.454;2023-02-11T02:12:28;103290.56;;;7.01;74.74
59029;BME280;45919;51.420;5.454;2023-02-11T02:13:31;103290.56;;;7.01;74.28
59029;BME280;45919;51.420;5.454;2023-02-11T02:14:36;103294.84;;;7.00;74.49
59029;BME280;45919;51.420;5.454;2023-02-11T02:15:39;103288.84;;;7.01;74.44
59029;BME280;45919;51.420;5.454;2023-02-11T02:16:41;103289.75;;;7.02;74.58
59029;BME280;45919;51.420;5.454;2023-02-11T02:17:45;103287.81;;;6.99;74.56
59029;BME280;45919;51.420;5.454;2023-02-11T02:20:24;103283.44;;;6.98;74.59
59029;BME280;45919;51.420;5.454;2023-02-11T02:23:29;103283.44;;;6.98;74.48
59029;BME280;45919;51.420;5.454;2023-02-11T02:25:39;103292.91;;;6.98;74.59
59029;BME280;45919;51.420;5.454;2023-02-11T02:29:05;103299.94;;;6.99;74.39
59029;BME280;45919;51.420;5.454;2023-02-11T02:30:38;103290.41;;;6.99;74.62
59029;BME280;45919;51.420;5.454;2023-02-11T02:31:53;103288.72;;;7.00;74.58
59029;BME280;45919;51.420;5.454;2023-02-11T02:33:22;103288.72;;;7.00;74.69
59029;BME280;45919;51.420;5.454;2023-02-11T02:34:28;103281.75;;;6.99;74.47
59029;BME280;45919;51.420;5.454;2023-02-11T02:35:36;103283.53;;;7.00;74.55
59029;BME280;45919;51.420;5.454;2023-02-11T02:36:46;103276.53;;;6.99;74.55
59029;BME280;45919;51.420;5.454;2023-02-11T02:38:58;103279.91;;;6.98;74.50
59029;BME280;45919;51.420;5.454;2023-02-11T02:40:02;103276.44;;;6.97;74.56
59029;BME280;45919;51.420;5.454;2023-02-11T02:41:15;103282.41;;;6.96;74.33
59029;BME280;45919;51.420;5.454;2023-02-11T02:42:17;103283.22;;;6.95;74.35
59029;BME280;45919;51.420;5.454;2023-02-11T02:43:20;103288.44;;;6.95;74.64
59029;BME280;45919;51.420;5.454;2023-02-11T02:44:22;103286.59;;;6.94;74.48
59029;BME280;45919;51.420;5.454;2023-02-11T02:45:24;103283.22;;;6.95;74.47
59029;BME280;45919;51.420;5.454;2023-02-11T02:46:30;103286.59;;;6.94;74.71
59029;BME280;45919;51.420;5.454;2023-02-11T02:47:32;103281.50;;;6.96;74.50
59029;BME280;45919;51.420;5.454;2023-02-11T02:48:33;103290.31;;;6.98;74.47
59029;BME280;45919;51.420;5.454;2023-02-11T02:49:36;103288.53;;;6.97;74.42
59029;BME280;45919;51.420;5.454;2023-02-11T02:50:37;103291.22;;;6.98;74.51
59029;BME280;45919;51.420;5.454;2023-02-11T02:54:01;103282.53;;;6.98;74.31
59029;BME280;45919;51.420;5.454;2023-02-11T03:00:58;103270.63;;;7.01;74.52
59029;BME280;45919;51.420;5.454;2023-02-11T03:03:28;103268.03;;;7.01;74.53
59029;BME280;45919;51.420;5.454;2023-02-11T03:05:47;103268.84;;;7.00;74.67
59029;BME280;45919;51.420;5.454;2023-02-11T03:07:02;103268.16;;;7.03;74.56
59029;BME280;45919;51.420;5.454;2023-02-11T03:08:07;103268.16;;;7.03;74.46
59029;BME280;45919;51.420;5.454;2023-02-11T03:10:16;103280.38;;;7.04;74.48
59029;BME280;45919;51.420;5.454;2023-02-11T03:11:20;103277.66;;;7.02;74.31
59029;BME280;45919;51.420;5.454;2023-02-11T03:12:22;103271.56;;;7.02;74.39
59029;BME280;45919;51.420;5.454;2023-02-11T03:13:26;103276.75;;;7.02;74.27
59029;BME280;45919;51.420;5.454;2023-02-11T03:14:29;103270.75;;;7.03;74.46
59029;BME280;45919;51.420;5.454;2023-02-11T03:15:33;103271.56;;;7.02;74.61
59029;BME280;45919;51.420;5.454;2023-02-11T03:16:37;103275.25;;;7.05;74.42
59029;BME280;45919;51.420;5.454;2023-02-11T03:17:40;103270.97;;;7.06;74.62
59029;BME280;45919;51.420;5.454;2023-02-11T03:18:44;103268.28;;;7.04;74.42
59029;BME280;45919;51.420;5.454;2023-02-11T03:19:47;103261.25;;;7.03;74.38
59029;BME280;45919;51.420;5.454;2023-02-11T03:20:50;103264.78;;;7.04;74.32
59029;BME280;45919;51.420;5.454;2023-02-11T03:21:53;103268.16;;;7.03;74.37
59029;BME280;45919;51.420;5.454;2023-02-11T03:22:57;103259.47;;;7.02;74.43
59029;BME280;45919;51.420;5.454;2023-02-11T03:24:02;103262.06;;;7.02;74.21
59029;BME280;45919;51.420;5.454;2023-02-11T03:25:06;103263.75;;;7.02;74.58
59029;BME280;45919;51.420;5.454;2023-02-11T03:26:10;103272.47;;;7.02;74.53
59029;BME280;45919;51.420;5.454;2023-02-11T03:27:17;103267.38;;;7.04;74.50
59029;BME280;45919;51.420;5.454;2023-02-11T03:28:24;103270.75;;;7.03;74.52
59029;BME280;45919;51.420;5.454;2023-02-11T03:31:06;103280.25;;;7.02;74.51
59029;BME280;45919;51.420;5.454;2023-02-11T03:32:13;103266.56;;;7.05;74.66
59029;BME280;45919;51.420;5.454;2023-02-11T03:33:28;103270.16;;;7.07;74.67
59029;BME280;45919;51.420;5.454;2023-02-11T03:34:34;103269.97;;;7.04;74.62
59029;BME280;45919;51.420;5.454;2023-02-11T03:35:38;103263.97;;;7.05;74.57
59029;BME280;45919;51.420;5.454;2023-02-11T03:38:04;103269.06;;;7.03;74.49
59029;BME280;45919;51.420;5.454;2023-02-11T03:39:07;103267.03;;;6.99;74.67
59029;BME280;45919;51.420;5.454;2023-02-11T03:40:13;103264.44;;;6.99;74.72
59029;BME280;45919;51.420;5.454;2023-02-11T03:41:16;103263.56;;;6.99;74.65
59029;BME280;45919;51.420;5.454;2023-02-11T03:42:20;103266.94;;;6.98;74.69
59029;BME280;45919;51.420;5.454;2023-02-11T03:43:30;103270.44;;;6.98;74.85
59029;BME280;45919;51.420;5.454;2023-02-11T03:44:35;103277.31;;;6.98;74.81
59029;BME280;45919;51.420;5.454;2023-02-11T03:45:37;103268.66;;;6.97;74.75
59029;BME280;45919;51.420;5.454;2023-02-11T03:46:39;103273.03;;;6.98;74.70
59029;BME280;45919;51.420;5.454;2023-02-11T03:47:45;103277.44;;;6.99;74.96
59029;BME280;45919;51.420;5.454;2023-02-11T03:48:48;103271.44;;;7.00;74.71
59029;BME280;45919;51.420;5.454;2023-02-11T03:49:52;103267.94;;;7.00;74.68
59029;BME280;45919;51.420;5.454;2023-02-11T03:50:55;103267.16;;;7.01;74.76
59029;BME280;45919;51.420;5.454;2023-02-11T03:51:58;103277.66;;;7.02;74.88
59029;BME280;45919;51.420;5.454;2023-02-11T03:53:01;103274.06;;;7.00;74.83
59029;BME280;45919;51.420;5.454;2023-02-11T03:54:04;103274.81;;;6.99;74.92
59029;BME280;45919;51.420;5.454;2023-02-11T03:55:11;103271.34;;;6.99;75.02
59029;BME280;45919;51.420;5.454;2023-02-11T03:56:16;103277.66;;;7.02;74.88
59029;BME280;45919;51.420;5.454;2023-02-11T03:57:19;103274.16;;;7.02;74.86
59029;BME280;45919;51.420;5.454;2023-02-11T03:58:21;103281.13;;;7.03;75.13
59029;BME280;45919;51.420;5.454;2023-02-11T03:59:22;103268.03;;;7.01;74.93
59029;BME280;45919;51.420;5.454;2023-02-11T04:00:31;103273.34;;;7.03;74.83
59029;BME280;45919;51.420;5.454;2023-02-11T04:01:33;103266.56;;;7.05;75.01
59029;BME280;45919;51.420;5.454;2023-02-11T04:02:35;103270.06;;;7.05;74.70
59029;BME280;45919;51.420;5.454;2023-02-11T04:03:37;103265.78;;;7.06;74.85
59029;BME280;45919;51.420;5.454;2023-02-11T04:04:39;103266.78;;;7.08;74.96
59029;BME280;45919;51.420;5.454;2023-02-11T04:05:40;103265.97;;;7.09;74.96
59029;BME280;45919;51.420;5.454;2023-02-11T04:06:42;103265.06;;;7.09;74.87
59029;BME280;45919;51.420;5.454;2023-02-11T04:07:43;103272.00;;;7.08;74.90
59029;BME280;45919;51.420;5.454;2023-02-11T04:08:45;103262.47;;;7.09;75.16
59029;BME280;45919;51.420;5.454;2023-02-11T04:09:46;103270.28;;;7.09;75.16
59029;BME280;45919;51.420;5.454;2023-02-11T04:10:48;103270.28;;;7.09;75.02
59029;BME280;45919;51.420;5.454;2023-02-11T04:11:49;103265.16;;;7.10;74.96
59029;BME280;45919;51.420;5.454;2023-02-11T04:12:51;103275.56;;;7.10;75.05
59029;BME280;45919;51.420;5.454;2023-02-11T04:13:52;103266.09;;;7.11;74.88
59029;BME280;45919;51.420;5.454;2023-02-11T04:14:54;103258.19;;;7.09;74.95
59029;BME280;45919;51.420;5.454;2023-02-11T04:15:55;103254.69;;;7.09;74.83
59029;BME280;45919;51.420;5.454;2023-02-11T04:16:57;103251.19;;;7.08;74.91
59029;BME280;45919;51.420;5.454;2023-02-11T04:17:58;103256.41;;;7.08;75.08
59029;BME280;45919;51.420;5.454;2023-02-11T04:19:00;103256.50;;;7.10;74.87
59029;BME280;45919;51.420;5.454;2023-02-11T04:20:02;103252.97;;;7.09;75.11
59029;BME280;45919;51.420;5.454;2023-02-11T04:21:03;103253.09;;;7.11;74.93
59029;BME280;45919;51.420;5.454;2023-02-11T04:22:05;103249.72;;;7.12;75.10
59029;BME280;45919;51.420;5.454;2023-02-11T04:23:07;103248.09;;;7.14;75.15
59029;BME280;45919;51.420;5.454;2023-02-11T04:24:08;103248.31;;;7.17;75.07
59029;BME280;45919;51.420;5.454;2023-02-11T04:25:10;103240.53;;;7.17;74.86
59029;BME280;45919;51.420;5.454;2023-02-11T04:26:11;103238.03;;;7.18;75.02
59029;BME280;45919;51.420;5.454;2023-02-11T04:27:12;103246.72;;;7.19;74.98
59029;BME280;45919;51.420;5.454;2023-02-11T04:28:14;103238.94;;;7.19;74.86
59029;BME280;45919;51.420;5.454;2023-02-11T04:29:16;103243.31;;;7.20;74.93
59029;BME280;45919;51.420;5.454;2023-02-11T04:30:17;103245.13;;;7.21;74.92
59029;BME280;45919;51.420;5.454;2023-02-11T04:31:18;103244.22;;;7.21;74.78
59029;BME280;45919;51.420;5.454;2023-02-11T04:32:20;103246.13;;;7.23;74.99
59029;BME280;45919;51.420;5.454;2023-02-11T04:33:22;103248.81;;;7.25;74.75
59029;BME280;45919;51.420;5.454;2023-02-11T04:34:24;103237.63;;;7.26;74.71
59029;BME280;45919;51.420;5.454;2023-02-11T04:35:25;103239.44;;;7.27;74.87
59029;BME280;45919;51.420;5.454;2023-02-11T04:36:27;103235.13;;;7.27;74.64
59029;BME280;45919;51.420;5.454;2023-02-11T04:37:28;103239.44;;;7.27;74.87
59029;BME280;45919;51.420;5.454;2023-02-11T04:38:29;103231.63;;;7.27;74.86
59029;BME280;45919;51.420;5.454;2023-02-11T04:39:31;103234.31;;;7.28;74.87
59029;BME280;45919;51.420;5.454;2023-02-11T04:40:33;103237.63;;;7.26;74.64
59029;BME280;45919;51.420;5.454;2023-02-11T04:41:34;103232.44;;;7.26;74.56
59029;BME280;45919;51.420;5.454;2023-02-11T04:42:35;103240.34;;;7.27;74.79
59029;BME280;45919;51.420;5.454;2023-02-11T04:43:37;103244.63;;;7.27;74.92
59029;BME280;45919;51.420;5.454;2023-02-11T04:44:38;103242.75;;;7.24;74.86
59029;BME280;45919;51.420;5.454;2023-02-11T04:45:40;103247.72;;;7.21;75.21
59029;BME280;45919;51.420;5.454;2023-02-11T04:46:41;103248.63;;;7.22;75.13
59029;BME280;45919;51.420;5.454;2023-02-11T04:47:43;103254.72;;;7.22;74.85
59029;BME280;45919;51.420;5.454;2023-02-11T04:48:44;103258.25;;;7.23;74.93
59029;BME280;45919;51.420;5.454;2023-02-11T04:49:45;103255.63;;;7.23;74.79
59029;BME280;45919;51.420;5.454;2023-02-11T04:50:47;103253.03;;;7.23;74.80
59029;BME280;45919;51.420;5.454;2023-02-11T04:51:48;103254.72;;;7.22;75.13
59029;BME280;45919;51.420;5.454;2023-02-11T04:52:50;103254.72;;;7.22;74.93
59029;BME280;45919;51.420;5.454;2023-02-11T04:53:51;103250.44;;;7.23;74.81
59029;BME280;45919;51.420;5.454;2023-02-11T04:54:53;103247.94;;;7.24;74.99
59029;BME280;45919;51.420;5.454;2023-02-11T04:55:54;103250.53;;;7.24;74.97
59029;BME280;45919;51.420;5.454;2023-02-11T04:56:55;103249.53;;;7.22;75.26
59029;BME280;45919;51.420;5.454;2023-02-11T04:57:57;103257.44;;;7.24;75.01
59029;BME280;45919;51.420;5.454;2023-02-11T04:58:58;103246.22;;;7.25;75.00
59029;BME280;45919;51.420;5.454;2023-02-11T05:00:00;103247.03;;;7.24;75.02
59029;BME280;45919;51.420;5.454;2023-02-11T05:01:13;103253.91;;;7.23;74.92
59029;BME280;45919;51.420;5.454;2023-02-11T05:02:15;103253.91;;;7.23;74.87
59029;BME280;45919;51.420;5.454;2023-02-11T05:03:16;103253.91;;;7.23;75.00
59029;BME280;45919;51.420;5.454;2023-02-11T05:04:18;103252.13;;;7.22;74.97
59029;BME280;45919;51.420;5.454;2023-02-11T05:05:19;103254.72;;;7.22;75.13
59029;BME280;45919;51.420;5.454;2023-02-11T05:06:21;103252.13;;;7.22;75.18
59029;BME280;45919;51.420;5.454;2023-02-11T05:07:22;103253.91;;;7.23;75.17
59029;BME280;45919;51.420;5.454;2023-02-11T05:08:24;103254.72;;;7.22;75.17
59029;BME280;45919;51.420;5.454;2023-02-11T05:09:25;103256.63;;;7.25;74.90
59029;BME280;45919;51.420;5.454;2023-02-11T05:10:27;103250.53;;;7.24;74.85
59029;BME280;45919;51.420;5.454;2023-02-11T05:11:28;103256.53;;;7.23;74.86
59029;BME280;45919;51.420;5.454;2023-02-11T05:12:30;103255.84;;;7.26;75.00
59029;BME280;45919;51.420;5.454;2023-02-11T05:13:31;103252.53;;;7.28;74.97
59029;BME280;45919;51.420;5.454;2023-02-11T05:14:33;103261.03;;;7.26;74.90
59029;BME280;45919;51.420;5.454;2023-02-11T05:15:34;103258.44;;;7.26;74.89
59029;BME280;45919;51.420;5.454;2023-02-11T05:16:36;103258.44;;;7.26;74.81
59029;BME280;45919;51.420;5.454;2023-02-11T05:17:37;103268.75;;;7.24;74.72
59029;BME280;45919;51.420;5.454;2023-02-11T05:18:42;103262.63;;;7.24;74.72
59029;BME280;45919;51.420;5.454;2023-02-11T05:19:44;103263.44;;;7.23;74.79
59029;BME280;45919;51.420;5.454;2023-02-11T05:20:46;103260.59;;;7.20;74.80
59029;BME280;45919;51.420;5.454;2023-02-11T05:21:48;103255.31;;;7.18;75.01
59029;BME280;45919;51.420;5.454;2023-02-11T05:23:02;103255.41;;;7.20;75.14
59029;BME280;45919;51.420;5.454;2023-02-11T05:24:03;103249.34;;;7.19;74.99
59029;BME280;45919;51.420;5.454;2023-02-11T05:25:05;103245.72;;;7.17;75.19
59029;BME280;45919;51.420;5.454;2023-02-11T05:26:06;103255.09;;;7.15;75.47
59029;BME280;45919;51.420;5.454;2023-02-11T05:27:08;103255.88;;;7.14;75.47
59029;BME280;45919;51.420;5.454;2023-02-11T05:28:10;103248.00;;;7.12;75.23
59029;BME280;45919;51.420;5.454;2023-02-11T05:29:11;103249.72;;;7.12;75.50
59029;BME280;45919;51.420;5.454;2023-02-11T05:30:13;103248.91;;;7.13;75.54
59029;BME280;45919;51.420;5.454;2023-02-11T05:31:14;103254.19;;;7.14;75.61
59029;BME280;45919;51.420;5.454;2023-02-11T05:32:17;103243.03;;;7.15;75.42
59029;BME280;45919;51.420;5.454;2023-02-11T05:33:19;103244.91;;;7.18;75.44
59029;BME280;45919;51.420;5.454;2023-02-11T05:34:20;103241.41;;;7.17;75.47
59029;BME280;45919;51.420;5.454;2023-02-11T05:35:22;103240.63;;;7.18;75.18
59029;BME280;45919;51.420;5.454;2023-02-11T05:36:23;103245.00;;;7.20;75.44
59029;BME280;45919;51.420;5.454;2023-02-11T05:37:25;103239.91;;;7.21;75.33
59029;BME280;45919;51.420;5.454;2023-02-11T05:38:26;103231.34;;;7.22;75.28
59029;BME280;45919;51.420;5.454;2023-02-11T05:39:28;103235.63;;;7.22;75.34
59029;BME280;45919;51.420;5.454;2023-02-11T05:40:29;103236.53;;;7.22;75.33
59029;BME280;45919;51.420;5.454;2023-02-11T05:41:31;103241.72;;;7.22;75.37
59029;BME280;45919;51.420;5.454;2023-02-11T05:42:32;103232.25;;;7.23;75.28
59029;BME280;45919;51.420;5.454;2023-02-11T05:43:33;103234.03;;;7.24;75.29
59029;BME280;45919;51.420;5.454;2023-02-11T05:44:35;103238.41;;;7.25;74.96
59029;BME280;45919;51.420;5.454;2023-02-11T05:45:37;103243.41;;;7.22;75.21
59029;BME280;45919;51.420;5.454;2023-02-11T05:46:38;103240.81;;;7.22;75.15
59029;BME280;45919;51.420;5.454;2023-02-11T05:47:40;103245.13;;;7.21;75.19
59029;BME280;45919;51.420;5.454;2023-02-11T05:48:41;103247.84;;;7.23;75.24
59029;BME280;45919;51.420;5.454;2023-02-11T05:49:42;103239.91;;;7.21;75.29
59029;BME280;45919;51.420;5.454;2023-02-11T05:50:44;103239.81;;;7.20;75.20
59029;BME280;45919;51.420;5.454;2023-02-11T05:51:46;103238.13;;;7.20;75.31
59029;BME280;45919;51.420;5.454;2023-02-11T05:52:47;103231.22;;;7.21;75.20
59029;BME280;45919;51.420;5.454;2023-02-11T05:53:49;103236.53;;;7.22;75.32
59029;BME280;45919;51.420;5.454;2023-02-11T05:54:50;103241.84;;;7.24;75.38
59029;BME280;45919;51.420;5.454;2023-02-11T05:55:51;103237.63;;;7.26;75.36
59029;BME280;45919;51.420;5.454;2023-02-11T05:56:53;103236.06;;;7.28;75.29
59029;BME280;45919;51.420;5.454;2023-02-11T05:57:55;103235.13;;;7.27;75.30
59029;BME280;45919;51.420;5.454;2023-02-11T05:58:57;103242.03;;;7.27;75.14
59029;BME280;45919;51.420;5.454;2023-02-11T05:59:58;103237.63;;;7.26;75.25
59029;BME280;45919;51.420;5.454;2023-02-11T06:01:00;103235.94;;;7.26;75.50